NWS Home NWS Lubbock West Texas Mesonet Central Sector Latest Conditions as of 0812 PM, Wed Jul 08, 2020

Latest   N   C   S   Daily Sum   3hrΔ   24hrΔ   Soil Data 
Site Map   24hr Precip   72hr Precip   Google Plot


Station Time of Last Temp Dew Pt. RH Wind Direction Wind Speed Wind Gust Max Wind Max Temp Min Temp Max RH Min RH Altimeter 1HR Rain Today's Rain Solar Rad
Abernathy 5ENE  08:05 PM 96 56 28% SE1519 26 mph 196° @ 0345 PM 100 68 91 20 29.86" 0 0.00 111
Aiken 3WSW  08:05 PM 93 59 32% SE1519 24 mph 162° @ 0646 PM 101 66 94 23 29.87" 0 0.00 108
Amherst 1NE  08:05 PM 97 50 21% S915 37 mph 205° @ 0245 PM 102 68 83 18 29.85" 0 0.00 127
Anton 6SSW  08:05 PM 97 54 25% SE1621 30 mph 172° @ 0510 PM 102 68 84 21 29.85" 0 0.00 76
Aspermont 3NE  08:05 PM 97 68 40% SE1320 22 mph 190° @ 0205 PM 101 68 98 31 29.78" 0 0.00 89
Bootleg 11WNW  08:05 PM 94 45 19% S1112 30 mph 309° @ 0207 AM 99 67 87 12 29.91" 0 0.31 125
Brownfield 2S  08:05 PM 97 54 25% SE1419 25 mph 165° @ 0600 PM 102 68 82 22 29.86" 0 0.00 106
Caprock Canyons State Park  08:05 PM 97 53 23% S1214 27 mph 158° @ 0336 PM 103 69 91 18 29.81" 0 0.00 87
Childress 2NNE  08:05 PM 96 61 32% SE1217 23 mph 160° @ 0505 PM 100 70 99 27 29.78" 0 0.00 110
Clarendon 2WSW  08:05 PM 96 56 28% SE2025 29 mph 169° @ 0605 PM 101 71 93 23 29.80" 0 0.00 121
Claude 12SW  08:05 PM 97 55 25% S1925 28 mph 175° @ 0627 PM 101 69 100 22 29.83" 0 0.01 119
Comanche Springs  08:05 PM 98 67 37% SE1014 23 mph 154° @ 0539 PM 102 69 99 30 29.76" 0 0.00 88
Crowell 1E  08:05 PM 97 68 39% S1214 22 mph 161° @ 0743 PM 102 71 97 30 29.77" 0 0.00 100
Denver City 7WNW  08:05 PM 96 46 19% S1013 23 mph 188° @ 1245 PM 101 66 84 15 29.87" 0 0.00 66
Dimmitt 2NE  08:05 PM 96 55 26% SE2024 36 mph 186° @ 0235 PM 100 67 87 20 29.86" 0 0.00 141
Dora NM 2SW  08:05 PM 97 38 14% S1012 24 mph 184° @ 0830 AM 102 67 77 11 29.90" 0 0.00 131
Earth 9WSW  08:05 PM 98 53 23% S1315 26 mph 181° @ 1144 AM 103 70 77 19 29.86" 0 0.00 127
Estelline 3SSE  08:05 PM 97 62 31% SE1014 25 mph 134° @ 0615 PM 101 72 96 29 29.76" 0 0.00 106
Floydada 2NNE  08:05 PM 95 53 25% S1519 27 mph 193° @ 0500 PM 100 66 89 22 29.86" 0 0.00 109
Fluvanna 3WNW  08:05 PM 96 58 30% S1113 20 mph 157° @ 0705 PM 99 69 91 25 29.84" 0 0.00 105
Friona 2NE  08:05 PM 98 39 13% S1013 32 mph 143° @ 0345 AM 102 66 90 11 29.87" 0 0.00 145
Gail 2ESE  08:05 PM 97 55 26% SE710 21 mph 183° @ 0250 PM 101 68 93 22 29.81" 0 0.00 109
Goodlett 3W  08:05 PM 99 63 33% SE1519 25 mph 201° @ 0230 PM 102 71 95 28 29.76" 0 0.00 100
Graham 5SSW  08:05 PM 96 54 26% SE1316 23 mph 179° @ 0345 PM 98 68 91 22 29.84" 0 0.00 114
Guthrie 10WSW  08:05 PM 96 60 32% SE1116 22 mph 177° @ 0325 PM 101 70 89 23 29.78" 0 0.00 101
Hackberry 2SSE  08:05 PM 97 67 38% SE1112 21 mph 144° @ 0724 PM 102 70 94 27 29.78" 0 0.00 95
Happy 1E  08:05 PM 95 58 29% S2022 31 mph 184° @ 0629 PM 100 66 94 25 29.86" 0 0.00 129
Hart 3N  08:05 PM 94 56 28% SE1016 26 mph 181° @ 0200 PM 100 66 94 22 29.86" 0 0.00 134
Haskell 1NW  08:05 PM 95 69 45% SE1016 21 mph 200° @ 0310 PM 99 72 86 35 29.78" 0 0.00 90
Hefner 1SW  08:05 PM 97 66 37% SE1519 24 mph 180° @ 0502 PM 103 71 91 31 29.78" 0 0.00 87
Hereford 2NW  08:05 PM 98 50 20% S1219 26 mph 220° @ 1150 AM 102 69 83 15 29.85" 0 0.00 137
Hobbs NM 5NW  08:05 PM 99 44 15% S711 22 mph 222° @ 0214 PM 102 70 62 14 29.90" 0 0.00 167
Jayton 1SSE  08:05 PM 98 62 33% SE811 22 mph 192° @ 0430 PM 103 68 92 22 29.79" 0 0.00 112
Knox City 3NW  08:05 PM 99 66 35% SE1417 24 mph 153° @ 0745 PM 104 70 94 28 29.76" 0 0.00 72
Lake Alan Henry 1NW  08:05 PM 99 60 28% S1012 23 mph 211° @ 0332 PM 103 71 86 22 29.81" 0 0.00 104
Lamesa 2SE  08:05 PM 97 53 24% SE1216 24 mph 187° @ 1150 AM 101 70 85 20 29.85" 0 0.00 121
Lesley 2S  08:05 PM 99 61 28% SE1820 28 mph 180° @ 0616 PM 105 72 94 24 29.76" 0 0.00 100
Levelland 4S  08:05 PM 96 55 26% S1214 25 mph 165° @ 0705 PM 102 68 79 21 29.85" 0 0.00 63
Lubbock 3WNW TTU  08:05 PM 97 55 26% SE1116 21 mph 164° @ 0450 PM 102 71 75 22 29.85" 0 0.00 117
McAdoo 3NNW  08:05 PM 95 59 30% S1113 28 mph 164° @ 0400 PM 99 68 90 27 29.87" 0 0.00 116
Memphis 1NE  08:05 PM 97 57 28% SE1622 28 mph 136° @ 0625 PM 101 71 95 27 29.77" 0 0.00 96
Morton 1ENE  08:05 PM 97 46 18% S912 28 mph 178° @ 0305 PM 102 70 69 17 29.86" 0 0.00 140
Muleshoe 2SSW  08:05 PM 97 50 21% S1217 24 mph 217° @ 1220 PM 102 70 79 11 29.86" 0 0.00 157
New Home  08:05 PM 96 57 28% S1316 24 mph 195° @ 0512 PM 101 68 87 23 29.87" 0 0.00 123
Northfield 1S  08:05 PM 99 53 23% S1317 26 mph 169° @ 0505 PM 104 71 95 21 29.77" 0 0.00 105
O'Donnell 1N  08:05 PM 96 56 28% SE1014 21 mph 197° @ 0215 PM 99 69 88 24 29.85" 0 0.00 95
Odell 4ENE  08:05 PM 94 73 52% SE1315 22 mph 134° @ 0607 PM 99 73 94 39 29.78" 0 0.00 75
Olton 6S  08:05 PM 94 58 31% S1621 26 mph 156° @ 0540 PM 100 67 91 25 29.87" 0 0.00 120
Paducah 10SW  08:05 PM 96 58 29% S1217 22 mph 170° @ 0600 PM 100 69 95 28 29.78" 0 0.00 102
Palo Duro 4E (JA Ranch)  08:05 PM 99 58 26% S2022 27 mph 171° @ 1236 PM 104 69 97 21 29.79" 0 0.00 103
Palo Duro Canyon SP Floor  08:05 PM 101 57 24% SE912 27 mph 132° @ 0559 PM 105 71 84 22 29.78" 0 0.00 114
Palo Duro Canyon State Park Rim  08:05 PM 97 56 26% S1317 25 mph 182° @ 0105 PM 102 69 87 23 29.84" 0 0.00 115
Plains 3N  08:05 PM 98 50 21% S1116 23 mph 179° @ 1235 PM 102 70 74 19 29.87" 0 0.00 76
Plainview 1S  08:05 PM 95 56 28% SE1422 25 mph 208° @ 0230 PM 100 68 91 23 29.85" 0 0.00 120
Post 1NE  08:05 PM 95 55 27% SE913 20 mph 175° @ 0105 PM 101 70 87 21 29.82" 0 0.00 107
Ralls 1SE  08:05 PM 94 54 27% SE1316 24 mph 177° @ 0230 PM 98 69 83 23 29.87" 0 0.00 112
Reese Center  08:05 PM 96 56 26% SE1923 27 mph 195° @ 0549 PM 100 69 86 23 29.85" 0 0.00 74
Roaring Springs 3N  08:05 PM 97 59 30% SE1216 28 mph 197° @ 0210 PM 101 66 100 27 29.82" 0 0.00 100
Rotan 5W  08:05 PM 98 64 33% SE1923 27 mph 188° @ 0428 PM 104 70 85 21 29.81" 0 0.00 98
Seagraves 1SW  08:05 PM 96 56 28% SE1217 22 mph 163° @ 0230 PM 102 69 80 22 29.85" 0 0.00 56
Seminole 2NNE  08:05 PM 95 52 24% SE1316 24 mph 157° @ 0435 PM 102 68 78 18 29.85" 0 0.00 99
Seymour 3NW  08:05 PM 96 68 43% SE1316 20 mph 148° @ 0545 PM 101 71 97 33 29.77" 0 0.00 78
Silverton 7ESE  08:05 PM 95 56 28% S1318 31 mph 199° @ 0330 PM 102 66 95 22 29.85" 0 0.00 103
Slaton 2NE  08:05 PM 96 55 27% SE1620 27 mph 146° @ 0340 PM 100 67 84 24 29.86" 0 0.00 99
Smyer  08:05 PM 96 56 26% SE1221 25 mph 185° @ 0701 PM 101 69 82 24 29.86" 0 0.00 104
Snyder 3E  08:05 PM 94 63 37% SE1316 25 mph 144° @ 0615 PM 100 70 93 29 29.83" 0 0.00 88
Snyder 3SSW  08:05 PM 97 64 35% SE1518 25 mph 162° @ 0314 PM 102 70 95 25 29.83" 0 0.00 93
South Plains 3ENE  08:05 PM 95 58 30% S1013 25 mph 170° @ 0513 PM 101 65 96 23 29.85" 0 0.00 98
Spur 1W  08:05 PM 96 61 33% SE811 26 mph 170° @ 0410 PM 101 69 92 25 29.80" 0 0.00 114
Stamford 5ESE  08:05 PM 95 69 43% S1517 24 mph 165° @ 0431 PM 101 70 91 32 29.80" 0 0.00 77
Sundown 8WSW  08:05 PM 96 51 23% SE1621 27 mph 185° @ 0410 PM 103 66 80 17 29.87" 0 0.00 70
Tahoka 3NNE  08:05 PM 96 55 26% SE1215 24 mph 196° @ 1042 AM 102 68 85 22 29.85" 0 0.00 100
Tatum NM 2SW  08:05 PM 99 42 15% S1014 22 mph 177° @ 0845 AM 102 64 83 14 29.89" 0 0.00 171
Throckmorton 1SW  08:05 PM 94 70 46% SE1012 19 mph 147° @ 0654 PM 100 70 100 36 29.79" 0 0.00 78
Truscott 2SE  08:05 PM 97 66 36% SE1316 27 mph 201° @ 0454 PM 102 70 95 29 29.77" 0 0.00 91
Tulia 2ENE  08:05 PM 96 57 29% S1519 30 mph 184° @ 0410 PM 100 66 90 25 29.85" 0 0.00 114
Turkey 2WSW  08:05 PM 99 58 27% SE1519 27 mph 158° @ 0420 PM 103 71 93 24 29.79" 0 0.00 96
Umbarger 3NNE  08:05 PM 96 55 26% S1721 35 mph 219° @ 0107 PM 100 65 93 21 29.85" 0 0.00 131
Vigo Park  08:05 PM 94 60 32% S1518 27 mph 176° @ 0124 PM 100 67 100 24 29.85" 0 0.00 111
Weinert 2NNE  08:05 PM 97 68 39% S1416 23 mph 178° @ 0536 PM 102 71 88 32 29.78" 0 0.00 77
Welch  08:05 PM 96 58 28% SE1215 23 mph 162° @ 0607 PM 101 67 100 23 29.85" 0 0.00 31
White River Lake 6NW  08:05 PM 96 58 29% S1012 28 mph 169° @ 0300 PM 99 70 85 27 29.83" 0 0.00 104
Wolfforth 6SSW  08:05 PM 96 56 28% S1419 30 mph 205° @ 0255 PM 100 69 89 24 29.86" 0 0.00 119

West Texas Mesonet Home   Site Map/Menu  NWS Lubbock Soil Data  Daily Summary Page  24hr Precip  72hr Precip  Google Plot